| time (UTC) | temp C | wind direction | speed KPH | gust KPH | rain 1hr cm | rain 24hr cm | rain mn cm | humidity % | barometer mb |
| 20260906071827 | 22 | 286 | 3.2 | 3.2 | 0.00 | 0.00 | 0.00 | 96 | 1007.3 |
| 20260906071328 | 22 | 251 | 4.8 | 4.8 | 0.00 | 0.00 | 0.00 | 96 | 1007.4 |
| 20260906070824 | 22 | 266 | 3.2 | 3.2 | 0.00 | 0.00 | 0.00 | 96 | 1007.4 |
| 20260906070319 | 22 | 264 | 0.0 | 0.0 | 0.00 | 0.00 | 0.00 | 96 | 1007.6 |
| 20260906065309 | 22 | 256 | 0.0 | 1.6 | 0.00 | 0.00 | 0.00 | 96 | 1007.8 |
| 20260906064805 | 22 | 185 | 1.6 | 1.6 | 0.00 | 0.00 | 0.00 | 96 | 1007.7 |
| 20260906064301 | 22 | 248 | 3.2 | 3.2 | 0.00 | 0.00 | 0.00 | 95 | 1007.9 |
| 20260906063755 | 22 | 278 | 6.4 | 6.4 | 0.00 | 0.00 | 0.00 | 95 | 1008.1 |
| 20260906063251 | 22 | 243 | 1.6 | 3.2 | 0.00 | 0.00 | 0.00 | 95 | 1007.8 |
| 20260906062746 | 22 | 270 | 4.8 | 4.8 | 0.00 | 0.00 | 0.00 | 95 | 1007.8 |
| 20260906062245 | 22 | 297 | 4.8 | 4.8 | 0.00 | 0.00 | 0.00 | 95 | 1007.8 |
| 20260906061741 | 22 | 230 | 3.2 | 3.2 | 0.00 | 0.00 | 0.00 | 94 | 1008.0 |
| 20260906061237 | 22 | 263 | 4.8 | 4.8 | 0.00 | 0.00 | 0.00 | 94 | 1008.2 |
| 20260906060732 | 22 | 271 | 3.2 | 4.8 | 0.00 | 0.00 | 0.00 | 94 | 1008.2 |
| 20260906060230 | 22 | 250 | 3.2 | 3.2 | 0.00 | 0.00 | 0.00 | 94 | 1008.2 |
| 20260906055725 | 22 | 244 | 1.6 | 1.6 | 0.00 | 0.00 | 0.00 | 93 | 1008.2 |
| 20260906055220 | 22 | 270 | 1.6 | 3.2 | 0.00 | 0.00 | 0.00 | 93 | 1008.3 |
| 20260906054715 | 22 | 259 | 3.2 | 3.2 | 0.00 | 0.00 | 0.00 | 93 | 1008.5 |
| 20260906054216 | 22 | 246 | 1.6 | 3.2 | 0.00 | 0.00 | 0.00 | 93 | 1008.4 |
| 20260906053713 | 22 | 254 | 4.8 | 4.8 | 0.00 | 0.00 | 0.00 | 93 | 1008.6 |
| 20260906053208 | 22 | 250 | 1.6 | 3.2 | 0.00 | 0.00 | 0.00 | 93 | 1008.6 |
| 20260906052703 | 22 | 254 | 1.6 | 1.6 | 0.00 | 0.00 | 0.00 | 92 | 1008.7 |
| 20260906052159 | 22 | 276 | 1.6 | 1.6 | 0.00 | 0.00 | 0.00 | 92 | 1008.8 |
| 20260906051656 | 22 | 276 | 0.0 | 0.0 | 0.00 | 0.00 | 0.00 | 92 | 1008.6 |
| 20260906051155 | 22 | 276 | 0.0 | 1.6 | 0.00 | 0.00 | 0.00 | 92 | 1008.7 |
| 20260906050651 | 22 | 276 | 0.0 | 0.0 | 0.00 | 0.00 | 0.00 | 93 | 1008.8 |
| 20260906050145 | 22 | 276 | 1.6 | 1.6 | 0.00 | 0.00 | 0.00 | 93 | 1008.7 |
| 20260906045644 | 22 | 276 | 0.0 | 1.6 | 0.00 | 0.00 | 0.00 | 93 | 1008.7 |
| 20260906045139 | 22 | 276 | 0.0 | 0.0 | 0.00 | 0.00 | 0.00 | 93 | 1008.5 |
| 20260906044635 | 22 | 276 | 0.0 | 0.0 | 0.00 | 0.00 | 0.00 | 92 | 1008.6 |
| 20260906044130 | 22 | 276 | 1.6 | 1.6 | 0.00 | 0.00 | 0.00 | 92 | 1008.7 |
| 20260906043627 | 22 | 277 | 0.0 | 0.0 | 0.00 | 0.00 | 0.00 | 92 | 1008.5 |
| 20260906043122 | 22 | 277 | 0.0 | 0.0 | 0.00 | 0.00 | 0.00 | 92 | 1008.6 |
| 20260906042621 | 22 | 277 | 0.0 | 1.6 | 0.00 | 0.00 | 0.00 | 92 | 1008.7 |
| 20260906042116 | 22 | 277 | 0.0 | 0.0 | 0.00 | 0.00 | 0.00 | 93 | 1009.0 |
| 20260906041612 | 22 | 278 | 0.0 | 0.0 | 0.00 | 0.00 | 0.00 | 92 | 1009.1 |
| 20260906041112 | 23 | 278 | 0.0 | 0.0 | 0.00 | 0.00 | 0.00 | 92 | 1009.1 |
| 20260906040607 | 22 | 277 | 1.6 | 1.6 | 0.00 | 0.00 | 0.00 | 91 | 1009.0 |
| 20260906035558 | 23 | 277 | 0.0 | 0.0 | 0.00 | 0.10 | 0.10 | 91 | 1009.0 |
| 20260906035054 | 23 | 277 | 0.0 | 0.0 | 0.00 | 0.10 | 0.10 | 91 | 1008.8 |
| 20260906034554 | 23 | 277 | 0.0 | 0.0 | 0.00 | 0.10 | 0.10 | 91 | 1008.9 |
| 20260906034048 | 23 | 277 | 0.0 | 0.0 | 0.00 | 0.10 | 0.10 | 91 | 1008.8 |
| 20260906033544 | 23 | 277 | 0.0 | 1.6 | 0.00 | 0.10 | 0.10 | 91 | 1008.9 |
| 20260906033039 | 23 | 277 | 0.0 | 0.0 | 0.00 | 0.10 | 0.10 | 92 | 1008.8 |
| 20260906032535 | 23 | 278 | 1.6 | 3.2 | 0.00 | 0.10 | 0.10 | 91 | 1009.0 |
| 20260906032030 | 23 | 250 | 1.6 | 1.6 | 0.00 | 0.10 | 0.10 | 92 | 1009.0 |
| 20260906031526 | 23 | 255 | 1.6 | 1.6 | 0.00 | 0.10 | 0.10 | 92 | 1009.0 |
| 20260906031021 | 23 | 244 | 1.6 | 3.2 | 0.00 | 0.10 | 0.10 | 91 | 1008.9 |
| 20260906030521 | 23 | 266 | 3.2 | 4.8 | 0.00 | 0.10 | 0.10 | 91 | 1009.1 |
| 20260906030020 | 23 | 252 | 1.6 | 3.2 | 0.00 | 0.10 | 0.10 | 91 | 1009.1 |
| 20260906025520 | 23 | 166 | 1.6 | 3.2 | 0.00 | 0.10 | 0.10 | 91 | 1009.3 |
| 20260906025018 | 23 | 173 | 1.6 | 3.2 | 0.00 | 0.10 | 0.10 | 91 | 1008.9 |
| 20260906024514 | 23 | 265 | 3.2 | 3.2 | 0.00 | 0.10 | 0.10 | 91 | 1008.9 |
| 20260906024014 | 23 | 301 | 0.0 | 0.0 | 0.00 | 0.10 | 0.10 | 91 | 1008.7 |
| 20260906023510 | 23 | 302 | 0.0 | 1.6 | 0.00 | 0.10 | 0.10 | 91 | 1008.7 |
| 20260906023004 | 23 | 302 | 1.6 | 1.6 | 0.00 | 0.10 | 0.10 | 91 | 1008.6 |
| 20260906022500 | 23 | 302 | 0.0 | 1.6 | 0.00 | 0.10 | 0.10 | 91 | 1008.7 |
| 20260906021955 | 23 | 304 | 0.0 | 0.0 | 0.00 | 0.10 | 0.10 | 90 | 1008.6 |
| 20260906021449 | 23 | 304 | 0.0 | 0.0 | 0.00 | 0.10 | 0.10 | 90 | 1008.6 |
| 20260906020944 | 23 | 304 | 0.0 | 0.0 | 0.00 | 0.10 | 0.10 | 91 | 1008.9 |
| 20260906020439 | 23 | 305 | 1.6 | 1.6 | 0.00 | 0.10 | 0.10 | 90 | 1008.6 |
| 20260906015939 | 23 | 245 | 0.0 | 0.0 | 0.00 | 0.10 | 0.10 | 90 | 1008.7 |
| 20260906015438 | 23 | 245 | 0.0 | 1.6 | 0.00 | 0.10 | 0.10 | 90 | 1008.6 |
| 20260906014938 | 23 | 246 | 0.0 | 0.0 | 0.00 | 0.10 | 0.10 | 90 | 1008.7 |
| 20260906014438 | 23 | 246 | 0.0 | 0.0 | 0.00 | 0.10 | 0.10 | 90 | 1008.6 |
| 20260906013934 | 23 | 264 | 1.6 | 1.6 | 0.00 | 0.10 | 0.10 | 89 | 1008.8 |
| 20260906013429 | 23 | 275 | 0.0 | 0.0 | 0.00 | 0.10 | 0.10 | 89 | 1008.7 |
| 20260906012925 | 23 | 186 | 0.0 | 0.0 | 0.00 | 0.10 | 0.10 | 89 | 1008.6 |
| 20260906012425 | 23 | 186 | 0.0 | 0.0 | 0.00 | 0.10 | 0.10 | 89 | 1008.4 |
| 20260906011924 | 23 | 186 | 1.6 | 1.6 | 0.00 | 0.10 | 0.10 | 89 | 1008.4 |
| 20260906011420 | 23 | 165 | 1.6 | 1.6 | 0.00 | 0.10 | 0.10 | 89 | 1008.4 |
| 20260906010915 | 23 | 249 | 3.2 | 4.8 | 0.00 | 0.10 | 0.10 | 89 | 1008.5 |
| 20260906010411 | 23 | 209 | 1.6 | 1.6 | 0.00 | 0.10 | 0.10 | 89 | 1008.3 |
| 20260906005907 | 24 | 244 | 1.6 | 3.2 | 0.00 | 0.10 | 0.10 | 89 | 1008.6 |
| 20260906005406 | 24 | 242 | 0.0 | 0.0 | 0.00 | 0.10 | 0.10 | 89 | 1008.5 |
| 20260906004905 | 24 | 244 | 1.6 | 1.6 | 0.00 | 0.10 | 0.10 | 89 | 1008.5 |
| 20260906004405 | 24 | 237 | 0.0 | 1.6 | 0.00 | 0.10 | 0.10 | 89 | 1008.4 |
| 20260906003900 | 24 | 264 | 4.8 | 4.8 | 0.00 | 0.10 | 0.10 | 89 | 1008.3 |
| 20260906003355 | 24 | 271 | 3.2 | 4.8 | 0.00 | 0.10 | 0.10 | 89 | 1008.3 |
| 20260906002851 | 24 | 298 | 3.2 | 4.8 | 0.00 | 0.10 | 0.10 | 89 | 1008.5 |
| 20260906002350 | 24 | 172 | 0.0 | 1.6 | 0.00 | 0.10 | 0.10 | 88 | 1008.5 |
| 20260906001846 | 25 | 207 | 1.6 | 1.6 | 0.00 | 0.10 | 0.10 | 87 | 1008.3 |
| 20260906001341 | 25 | 248 | 3.2 | 4.8 | 0.00 | 0.10 | 0.10 | 87 | 1008.3 |
| 20260906000836 | 25 | 302 | 1.6 | 3.2 | 0.00 | 0.10 | 0.10 | 85 | 1008.3 |
| 20260906000333 | 25 | 266 | 3.2 | 3.2 | 0.00 | 0.10 | 0.10 | 85 | 1008.2 |
| 20260905235831 | 25 | 257 | 0.0 | 1.6 | 0.00 | 0.10 | 0.10 | 84 | 1008.0 |
| 20260905235331 | 25 | 271 | 1.6 | 1.6 | 0.00 | 0.10 | 0.10 | 83 | 1007.8 |
| 20260905234826 | 25 | 191 | 1.6 | 1.6 | 0.00 | 0.10 | 0.10 | 83 | 1007.8 |
| 20260905234321 | 25 | 191 | 0.0 | 0.0 | 0.00 | 0.10 | 0.10 | 83 | 1008.0 |
| 20260905233816 | 25 | 191 | 1.6 | 1.6 | 0.00 | 0.10 | 0.10 | 82 | 1008.0 |
| 20260905233311 | 25 | 191 | 3.2 | 4.8 | 0.00 | 0.10 | 0.10 | 80 | 1007.8 |
| 20260905232811 | 25 | 190 | 1.6 | 1.6 | 0.00 | 0.10 | 0.10 | 79 | 1007.9 |
| 20260905232307 | 26 | 190 | 1.6 | 1.6 | 0.00 | 0.10 | 0.10 | 79 | 1007.8 |
| 20260905231803 | 26 | 190 | 1.6 | 1.6 | 0.00 | 0.10 | 0.10 | 82 | 1007.6 |
| 20260905231258 | 26 | 190 | 1.6 | 1.6 | 0.00 | 0.10 | 0.10 | 81 | 1007.6 |
| 20260905230754 | 26 | 190 | 0.0 | 0.0 | 0.00 | 0.10 | 0.10 | 80 | 1007.4 |
| 20260905230251 | 26 | 190 | 0.0 | 0.0 | 0.00 | 0.10 | 0.10 | 79 | 1007.4 |
| 20260905225751 | 26 | 190 | 0.0 | 0.0 | 0.00 | 0.10 | 0.10 | 76 | 1007.5 |
| 20260905225246 | 26 | 190 | 1.6 | 1.6 | 0.00 | 0.10 | 0.10 | 75 | 1007.4 |
| 20260905224745 | 26 | 188 | 3.2 | 4.8 | 0.00 | 0.10 | 0.10 | 77 | 1007.2 |
| 20260905224242 | 26 | 78 | 0.0 | 0.0 | 0.00 | 0.10 | 0.10 | 77 | 1007.3 |
| 20260905223737 | 26 | 145 | 0.0 | 0.0 | 0.00 | 0.10 | 0.10 | 80 | 1007.3 |
| 20260905223234 | 26 | 146 | 0.0 | 0.0 | 0.00 | 0.10 | 0.10 | 79 | 1007.2 |
| 20260905222729 | 26 | 145 | 0.0 | 0.0 | 0.00 | 0.10 | 0.10 | 79 | 1007.1 |
| 20260905222228 | 27 | 146 | 0.0 | 0.0 | 0.00 | 0.10 | 0.10 | 80 | 1007.1 |
| 20260905221724 | 26 | 140 | 1.6 | 1.6 | 0.00 | 0.10 | 0.10 | 81 | 1007.2 |
| 20260905221221 | 25 | 138 | 0.0 | 0.0 | 0.00 | 0.10 | 0.10 | 83 | 1007.1 |
| 20260905220717 | 25 | 136 | 0.0 | 0.0 | 0.00 | 0.10 | 0.10 | 84 | 1007.1 |
| 20260905220212 | 24 | 101 | 0.0 | 0.0 | 0.00 | 0.10 | 0.10 | 87 | 1006.9 |
| 20260905215712 | 24 | 77 | 0.0 | 0.0 | 0.00 | 0.10 | 0.10 | 87 | 1007.2 |
| 20260905215208 | 24 | 85 | 0.0 | 0.0 | 0.00 | 0.10 | 0.10 | 87 | 1007.1 |
| 20260905214703 | 25 | 148 | 0.0 | 0.0 | 0.00 | 0.10 | 0.10 | 86 | 1007.0 |
| 20260905214159 | 25 | 149 | 0.0 | 1.6 | 0.00 | 0.10 | 0.10 | 87 | 1007.3 |
| 20260905213654 | 23 | 72 | 0.0 | 0.0 | 0.00 | 0.10 | 0.10 | 89 | 1007.0 |
| 20260905213150 | 23 | 55 | 1.6 | 1.6 | 0.00 | 0.10 | 0.10 | 89 | 1007.1 |
| 20260905212644 | 23 | 97 | 0.0 | 1.6 | 0.00 | 0.10 | 0.10 | 92 | 1007.4 |
| 20260905212144 | 22 | 102 | 0.0 | 0.0 | 0.00 | 0.10 | 0.10 | 93 | 1007.7 |
| 20260905211639 | 23 | 58 | 1.6 | 3.2 | 0.18 | 0.10 | 0.10 | 94 | 1007.9 |
| 20260905211134 | 23 | 162 | 0.0 | 0.0 | 0.18 | 0.10 | 0.10 | 92 | 1008.1 |
| 20260905210631 | 23 | 275 | 3.2 | 3.2 | 0.13 | 0.08 | 0.08 | 89 | 1008.1 |
| 20260905210125 | 23 | 268 | 3.2 | 3.2 | 0.13 | 0.08 | 0.08 | 89 | 1008.2 |
| 20260905205624 | 23 | 279 | 0.0 | 0.0 | 0.18 | 0.05 | 0.05 | 88 | 1007.7 |
| 20260905205124 | 23 | 273 | 3.2 | 3.2 | 0.36 | 0.05 | 0.05 | 88 | 1008.2 |
| 20260905204623 | 24 | 256 | 3.2 | 3.2 | 0.18 | 0.03 | 0.03 | 84 | 1008.1 |
| 20260905204119 | 25 | 249 | 3.2 | 6.4 | 0.00 | 0.00 | 0.00 | 79 | 1008.5 |
| 20260905203619 | 26 | 236 | 3.2 | 3.2 | 0.00 | 0.00 | 0.00 | 72 | 1008.3 |
| 20260905203114 | 27 | 253 | 1.6 | 1.6 | 0.00 | 0.00 | 0.00 | 71 | 1008.3 |
| 20260905202610 | 27 | 113 | 1.6 | 3.2 | 0.00 | 0.00 | 0.00 | 68 | 1008.3 |
| 20260905202105 | 28 | 71 | 1.6 | 1.6 | 0.00 | 0.00 | 0.00 | 65 | 1007.9 |
| 20260905201600 | 28 | 207 | 8.0 | 12.9 | 0.00 | 0.00 | 0.00 | 62 | 1007.9 |
| 20260905201100 | 28 | 249 | 3.2 | 3.2 | 0.00 | 0.00 | 0.00 | 62 | 1007.7 |
| 20260905200555 | 30 | 291 | 9.7 | 14.5 | 0.00 | 0.00 | 0.00 | 62 | 1008.0 |
| 20260905200050 | 32 | 199 | 4.8 | 4.8 | 0.00 | 0.00 | 0.00 | 58 | 1007.7 |
| 20260905195550 | 33 | 330 | 8.0 | 12.9 | 0.00 | 0.00 | 0.00 | 55 | 1007.0 |
| 20260905195045 | 33 | 240 | 4.8 | 4.8 | 0.00 | 0.00 | 0.00 | 52 | 1006.8 |
| 20260905194545 | 34 | 236 | 6.4 | 11.3 | 0.00 | 0.00 | 0.00 | 50 | 1007.2 |
| 20260905194044 | 35 | 201 | 0.0 | 0.0 | 0.00 | 0.00 | 0.00 | 50 | 1007.3 |
| 20260905193539 | 35 | 304 | 3.2 | 4.8 | 0.00 | 0.00 | 0.00 | 48 | 1007.6 |
| 20260905193035 | 36 | 265 | 0.0 | 3.2 | 0.00 | 0.00 | 0.00 | 48 | 1007.5 |
| 20260905192529 | 35 | 112 | 0.0 | 1.6 | 0.00 | 0.00 | 0.00 | 48 | 1007.5 |
| 20260905192026 | 36 | 247 | 3.2 | 3.2 | 0.00 | 0.00 | 0.00 | 47 | 1007.4 |
| 20260905191525 | 36 | 76 | 0.0 | 0.0 | 0.00 | 0.00 | 0.00 | 47 | 1007.2 |
| 20260905191024 | 36 | 76 | 0.0 | 0.0 | 0.00 | 0.00 | 0.00 | 48 | 1007.1 |
| 20260905190522 | 36 | 55 | 0.0 | 1.6 | 0.00 | 0.00 | 0.00 | 49 | 1007.2 |
| 20260905190022 | 36 | 86 | 0.0 | 0.0 | 0.00 | 0.00 | 0.00 | 48 | 1007.4 |
| 20260905185521 | 35 | 220 | 0.0 | 0.0 | 0.00 | 0.00 | 0.00 | 48 | 1007.4 |
| 20260905185021 | 35 | 191 | 8.0 | 11.3 | 0.00 | 0.00 | 0.00 | 46 | 1007.7 |
| 20260905184521 | 35 | 164 | 0.0 | 1.6 | 0.00 | 0.00 | 0.00 | 48 | 1007.5 |
| 20260905184020 | 35 | 281 | 4.8 | 4.8 | 0.00 | 0.00 | 0.00 | 47 | 1007.6 |
| 20260905183520 | 35 | 79 | 0.0 | 0.0 | 0.00 | 0.00 | 0.00 | 50 | 1007.8 |
| 20260905183015 | 35 | 78 | 1.6 | 1.6 | 0.00 | 0.00 | 0.00 | 49 | 1007.7 |
| 20260905182515 | 36 | 70 | 3.2 | 4.8 | 0.00 | 0.00 | 0.00 | 47 | 1007.7 |
| 20260905182010 | 36 | 59 | 0.0 | 0.0 | 0.00 | 0.00 | 0.00 | 46 | 1007.8 |
| 20260905181510 | 35 | 216 | 1.6 | 1.6 | 0.00 | 0.00 | 0.00 | 48 | 1008.0 |
| 20260905181009 | 35 | 170 | 1.6 | 1.6 | 0.00 | 0.00 | 0.00 | 49 | 1008.1 |
| 20260905180504 | 35 | 238 | 3.2 | 3.2 | 0.00 | 0.00 | 0.00 | 50 | 1008.1 |
| 20260905175959 | 35 | 183 | 1.6 | 1.6 | 0.00 | 0.00 | 0.00 | 51 | 1008.4 |
| 20260905175458 | 36 | 157 | 0.0 | 0.0 | 0.00 | 0.00 | 0.00 | 49 | 1008.5 |
| 20260905174954 | 36 | 97 | 1.6 | 3.2 | 0.00 | 0.00 | 0.00 | 49 | 1008.5 |
| 20260905174449 | 35 | 159 | 0.0 | 0.0 | 0.00 | 0.00 | 0.00 | 52 | 1008.6 |
| 20260905173945 | 35 | 145 | 1.6 | 1.6 | 0.00 | 0.00 | 0.00 | 51 | 1008.5 |
| 20260905173441 | 36 | 20 | 1.6 | 1.6 | 0.00 | 0.00 | 0.00 | 50 | 1008.8 |
| 20260905172936 | 35 | 222 | 3.2 | 3.2 | 0.00 | 0.00 | 0.00 | 53 | 1009.0 |
| 20260905172434 | 35 | 337 | 3.2 | 3.2 | 0.00 | 0.00 | 0.00 | 53 | 1008.9 |
| 20260905171930 | 35 | 7 | 1.6 | 3.2 | 0.00 | 0.00 | 0.00 | 53 | 1009.1 |
| 20260905171427 | 35 | 257 | 6.4 | 6.4 | 0.00 | 0.00 | 0.00 | 51 | 1009.4 |
| 20260905170923 | 35 | 337 | 3.2 | 3.2 | 0.00 | 0.00 | 0.00 | 53 | 1009.4 |
| 20260905170419 | 35 | 89 | 0.0 | 0.0 | 0.00 | 0.00 | 0.00 | 56 | 1009.4 |
| 20260905165918 | 35 | 89 | 0.0 | 0.0 | 0.00 | 0.00 | 0.00 | 57 | 1009.5 |
| 20260905165413 | 34 | 87 | 0.0 | 0.0 | 0.00 | 0.00 | 0.00 | 59 | 1009.5 |
| 20260905164908 | 33 | 275 | 0.0 | 1.6 | 0.00 | 0.00 | 0.00 | 60 | 1009.6 |
| 20260905164403 | 34 | 202 | 1.6 | 3.2 | 0.00 | 0.00 | 0.00 | 58 | 1009.6 |
| 20260905163858 | 33 | 126 | 0.0 | 0.0 | 0.00 | 0.00 | 0.00 | 59 | 1009.8 |
| 20260905163355 | 34 | 257 | 3.2 | 4.8 | 0.00 | 0.00 | 0.00 | 60 | 1010.0 |
| 20260905162850 | 33 | 270 | 0.0 | 0.0 | 0.00 | 0.00 | 0.00 | 59 | 1009.8 |
| 20260905162350 | 34 | 126 | 0.0 | 0.0 | 0.00 | 0.00 | 0.00 | 58 | 1010.0 |
| 20260905161844 | 35 | 328 | 0.0 | 0.0 | 0.00 | 0.00 | 0.00 | 59 | 1010.0 |
| 20260905161344 | 34 | 172 | 0.0 | 0.0 | 0.00 | 0.00 | 0.00 | 61 | 1010.2 |
| 20260905160842 | 33 | 234 | 3.2 | 3.2 | 0.00 | 0.00 | 0.00 | 63 | 1010.1 |
| 20260905160337 | 32 | 331 | 0.0 | 0.0 | 0.00 | 0.00 | 0.00 | 63 | 1010.2 |
| 20260905155832 | 32 | 256 | 3.2 | 4.8 | 0.00 | 0.00 | 0.00 | 64 | 1010.1 |
| 20260905155331 | 32 | 205 | 1.6 | 3.2 | 0.00 | 0.00 | 0.00 | 64 | 1010.1 |
| 20260905154830 | 32 | 280 | 3.2 | 4.8 | 0.00 | 0.00 | 0.00 | 64 | 1010.2 |
| 20260905154326 | 32 | 213 | 0.0 | 0.0 | 0.00 | 0.00 | 0.00 | 67 | 1010.2 |
| 20260905153821 | 32 | 288 | 8.0 | 11.3 | 0.00 | 0.00 | 0.00 | 68 | 1010.3 |
| 20260905153318 | 32 | 347 | 0.0 | 0.0 | 0.00 | 0.00 | 0.00 | 66 | 1010.3 |
| 20260905152817 | 32 | 293 | 3.2 | 4.8 | 0.00 | 0.00 | 0.00 | 67 | 1010.1 |
| 20260905152316 | 31 | 271 | 6.4 | 9.7 | 0.00 | 0.00 | 0.00 | 68 | 1010.2 |
| 20260905151812 | 31 | 202 | 1.6 | 1.6 | 0.00 | 0.00 | 0.00 | 71 | 1010.3 |
| 20260905151308 | 31 | 259 | 3.2 | 3.2 | 0.00 | 0.00 | 0.00 | 71 | 1010.3 |
| 20260905150808 | 30 | 247 | 0.0 | 1.6 | 0.00 | 0.00 | 0.00 | 73 | 1010.2 |
| 20260905150308 | 30 | 264 | 3.2 | 4.8 | 0.00 | 0.00 | 0.00 | 73 | 1010.5 |
| 20260905145805 | 30 | 263 | 3.2 | 4.8 | 0.00 | 0.00 | 0.00 | 74 | 1010.5 |
| 20260905145259 | 30 | 197 | 0.0 | 1.6 | 0.00 | 0.00 | 0.00 | 75 | 1010.4 |
| 20260905144758 | 30 | 216 | 1.6 | 1.6 | 0.00 | 0.00 | 0.00 | 76 | 1010.3 |
| 20260905144254 | 29 | 276 | 1.6 | 1.6 | 0.00 | 0.00 | 0.00 | 77 | 1010.3 |
| 20260905143753 | 29 | 239 | 1.6 | 1.6 | 0.00 | 0.00 | 0.00 | 78 | 1010.5 |
| 20260905143253 | 28 | 276 | 0.0 | 1.6 | 0.00 | 0.00 | 0.00 | 78 | 1010.2 |
| 20260905142751 | 28 | 221 | 0.0 | 0.0 | 0.00 | 0.00 | 0.00 | 79 | 1010.2 |
| 20260905142245 | 28 | 223 | 3.2 | 3.2 | 0.00 | 0.00 | 0.00 | 81 | 1010.6 |
| 20260905141741 | 28 | 211 | 0.0 | 0.0 | 0.00 | 0.00 | 0.00 | 81 | 1010.3 |
| 20260905141237 | 28 | 245 | 9.7 | 12.9 | 0.00 | 0.00 | 0.00 | 80 | 1010.5 |
| 20260905140732 | 28 | 264 | 1.6 | 1.6 | 0.00 | 0.00 | 0.00 | 82 | 1010.6 |
| 20260905140227 | 27 | 264 | 4.8 | 6.4 | 0.00 | 0.00 | 0.00 | 83 | 1010.5 |
| 20260905135726 | 27 | 290 | 0.0 | 0.0 | 0.00 | 0.00 | 0.00 | 84 | 1010.5 |
| 20260905135222 | 27 | 269 | 4.8 | 6.4 | 0.00 | 0.00 | 0.00 | 84 | 1010.5 |
| 20260905134721 | 27 | 181 | 1.6 | 3.2 | 0.00 | 0.00 | 0.00 | 85 | 1010.8 |
| 20260905134221 | 27 | 159 | 1.6 | 1.6 | 0.00 | 0.00 | 0.00 | 86 | 1010.6 |
| 20260905133716 | 26 | 211 | 1.6 | 1.6 | 0.00 | 0.00 | 0.00 | 86 | 1010.8 |
| 20260905133211 | 26 | 251 | 1.6 | 3.2 | 0.00 | 0.00 | 0.00 | 87 | 1010.7 |
| 20260905132710 | 26 | 210 | 0.0 | 1.6 | 0.00 | 0.00 | 0.00 | 88 | 1010.8 |
| 20260905132206 | 26 | 280 | 3.2 | 3.2 | 0.00 | 0.00 | 0.00 | 88 | 1010.8 |
| 20260905131701 | 26 | 251 | 1.6 | 1.6 | 0.00 | 0.00 | 0.00 | 89 | 1010.9 |
| 20260905131156 | 26 | 201 | 1.6 | 3.2 | 0.00 | 0.00 | 0.00 | 90 | 1011.1 |
| 20260905130656 | 25 | 236 | 1.6 | 1.6 | 0.00 | 0.00 | 0.00 | 90 | 1010.9 |
| 20260905130150 | 25 | 248 | 0.0 | 1.6 | 0.00 | 0.00 | 0.00 | 91 | 1010.9 |
| 20260905125650 | 25 | 264 | 4.8 | 6.4 | 0.00 | 0.00 | 0.00 | 91 | 1010.9 |
| 20260905125146 | 25 | 253 | 3.2 | 4.8 | 0.00 | 0.00 | 0.00 | 92 | 1011.0 |
| 20260905124642 | 25 | 254 | 3.2 | 3.2 | 0.00 | 0.00 | 0.00 | 93 | 1011.0 |
| 20260905124138 | 25 | 238 | 1.6 | 3.2 | 0.00 | 0.00 | 0.00 | 93 | 1010.8 |
| 20260905123633 | 25 | 264 | 6.4 | 6.4 | 0.00 | 0.00 | 0.00 | 94 | 1010.7 |
| 20260905123130 | 25 | 271 | 3.2 | 3.2 | 0.00 | 0.00 | 0.00 | 94 | 1010.8 |
| 20260905122629 | 24 | 324 | 1.6 | 3.2 | 0.00 | 0.00 | 0.00 | 95 | 1011.0 |
| 20260905122124 | 24 | 274 | 4.8 | 4.8 | 0.00 | 0.00 | 0.00 | 95 | 1011.0 |
| 20260905121619 | 24 | 263 | 3.2 | 3.2 | 0.00 | 0.00 | 0.00 | 95 | 1010.7 |
| 20260905121114 | 24 | 259 | 0.0 | 0.0 | 0.00 | 0.00 | 0.00 | 95 | 1011.0 |
| 20260905120613 | 24 | 288 | 0.0 | 0.0 | 0.00 | 0.00 | 0.00 | 96 | 1010.8 |
| 20260905120109 | 23 | 145 | 0.0 | 0.0 | 0.00 | 0.00 | 0.00 | 96 | 1010.8 |
| 20260905115608 | 23 | 277 | 0.0 | 1.6 | 0.00 | 0.00 | 0.00 | 96 | 1010.8 |
| 20260905115102 | 23 | 210 | 0.0 | 0.0 | 0.00 | 0.00 | 0.00 | 96 | 1010.5 |
| 20260905114602 | 23 | 238 | 1.6 | 3.2 | 0.00 | 0.00 | 0.00 | 96 | 1010.7 |
| 20260905114101 | 23 | 167 | 0.0 | 0.0 | 0.00 | 0.00 | 0.00 | 96 | 1010.4 |
| 20260905113556 | 23 | 293 | 3.2 | 4.8 | 0.00 | 0.00 | 0.00 | 96 | 1010.5 |
| 20260905113051 | 23 | 242 | 3.2 | 3.2 | 0.00 | 0.00 | 0.00 | 96 | 1010.3 |
| 20260905112546 | 23 | 252 | 0.0 | 0.0 | 0.00 | 0.00 | 0.00 | 96 | 1010.3 |
| 20260905112042 | 23 | 224 | 0.0 | 0.0 | 0.00 | 0.00 | 0.00 | 96 | 1010.3 |
| 20260905111537 | 23 | 286 | 1.6 | 4.8 | 0.00 | 0.00 | 0.00 | 96 | 1010.1 |
| 20260905111036 | 23 | 260 | 0.0 | 0.0 | 0.00 | 0.00 | 0.00 | 96 | 1010.0 |
| 20260905110535 | 23 | 284 | 0.0 | 1.6 | 0.00 | 0.00 | 0.00 | 95 | 1010.1 |
| 20260905110031 | 23 | 273 | 0.0 | 0.0 | 0.00 | 0.00 | 0.00 | 95 | 1010.1 |
| 20260905105530 | 23 | 243 | 0.0 | 1.6 | 0.00 | 0.00 | 0.00 | 95 | 1010.0 |
| 20260905105030 | 24 | 288 | 0.0 | 0.0 | 0.00 | 0.00 | 0.00 | 95 | 1009.9 |
| 20260905104526 | 23 | 231 | 1.6 | 1.6 | 0.00 | 0.00 | 0.00 | 95 | 1009.8 |
| 20260905104025 | 24 | 197 | 0.0 | 0.0 | 0.00 | 0.00 | 0.00 | 94 | 1009.6 |
| 20260905103521 | 24 | 155 | 0.0 | 1.6 | 0.00 | 0.00 | 0.00 | 94 | 1009.6 |
| 20260905103017 | 24 | 250 | 0.0 | 0.0 | 0.00 | 0.00 | 0.00 | 94 | 1009.5 |
| 20260905102512 | 24 | 192 | 0.0 | 0.0 | 0.00 | 0.00 | 0.00 | 94 | 1009.6 |
| 20260905102009 | 24 | 286 | 3.2 | 4.8 | 0.00 | 0.00 | 0.00 | 94 | 1009.1 |
| 20260905101507 | 24 | 190 | 0.0 | 0.0 | 0.00 | 0.00 | 0.00 | 93 | 1009.5 |
| 20260905101005 | 24 | 200 | 0.0 | 0.0 | 0.00 | 0.00 | 0.00 | 93 | 1009.3 |
| 20260905100502 | 24 | 293 | 0.0 | 0.0 | 0.00 | 0.00 | 0.00 | 93 | 1009.3 |
| 20260905100001 | 24 | 275 | 1.6 | 3.2 | 0.00 | 0.00 | 0.00 | 93 | 1009.3 |
| 20260905095456 | 25 | 279 | 0.0 | 0.0 | 0.00 | 0.00 | 0.00 | 92 | 1009.3 |
| 20260905094951 | 25 | 289 | 0.0 | 1.6 | 0.00 | 0.00 | 0.00 | 92 | 1009.3 |
| 20260905094446 | 25 | 249 | 0.0 | 0.0 | 0.00 | 0.00 | 0.00 | 91 | 1009.3 |
| 20260905093945 | 25 | 245 | 1.6 | 3.2 | 0.00 | 0.00 | 0.00 | 91 | 1009.5 |
| 20260905093440 | 25 | 256 | 3.2 | 3.2 | 0.00 | 0.00 | 0.00 | 90 | 1009.4 |
| 20260905092936 | 25 | 243 | 0.0 | 0.0 | 0.00 | 0.00 | 0.00 | 90 | 1009.0 |
| 20260905092431 | 25 | 275 | 0.0 | 1.6 | 0.00 | 0.00 | 0.00 | 90 | 1009.1 |
| 20260905091926 | 25 | 256 | 3.2 | 3.2 | 0.00 | 0.00 | 0.00 | 90 | 1009.4 |
| 20260905091421 | 25 | 164 | 0.0 | 1.6 | 0.00 | 0.00 | 0.00 | 90 | 1009.1 |
| 20260905090920 | 25 | 253 | 3.2 | 3.2 | 0.00 | 0.00 | 0.00 | 90 | 1009.3 |
| 20260905090416 | 25 | 209 | 1.6 | 1.6 | 0.00 | 0.00 | 0.00 | 90 | 1009.7 |
| 20260905085914 | 25 | 211 | 1.6 | 1.6 | 0.00 | 0.00 | 0.00 | 90 | 1009.5 |
| 20260905085409 | 25 | 278 | 1.6 | 3.2 | 0.00 | 0.00 | 0.00 | 90 | 1009.5 |
| 20260905084905 | 25 | 266 | 3.2 | 3.2 | 0.00 | 0.00 | 0.00 | 90 | 1009.6 |
| 20260905084404 | 25 | 196 | 1.6 | 3.2 | 0.00 | 0.00 | 0.00 | 90 | 1009.6 |
| 20260905083859 | 25 | 187 | 1.6 | 1.6 | 0.00 | 0.00 | 0.00 | 90 | 1009.6 |
| 20260905083354 | 25 | 263 | 4.8 | 4.8 | 0.00 | 0.00 | 0.00 | 90 | 1009.7 |
| 20260905082850 | 25 | 215 | 1.6 | 1.6 | 0.00 | 0.00 | 0.00 | 90 | 1009.6 |
| 20260905082346 | 25 | 204 | 1.6 | 3.2 | 0.00 | 0.00 | 0.00 | 89 | 1009.8 |
| 20260905081841 | 25 | 253 | 1.6 | 3.2 | 0.00 | 0.00 | 0.00 | 89 | 1010.0 |
| 20260905081336 | 25 | 218 | 3.2 | 3.2 | 0.00 | 0.00 | 0.00 | 89 | 1009.9 |
| 20260905080835 | 25 | 274 | 3.2 | 3.2 | 0.00 | 0.00 | 0.00 | 89 | 1009.9 |
| 20260905080335 | 25 | 284 | 3.2 | 3.2 | 0.00 | 0.00 | 0.00 | 89 | 1010.0 |
| 20260905075833 | 25 | 211 | 3.2 | 4.8 | 0.00 | 0.00 | 0.00 | 89 | 1010.1 |
| 20260905075328 | 25 | 228 | 1.6 | 1.6 | 0.00 | 0.00 | 0.00 | 88 | 1010.1 |
| 20260905074827 | 25 | 274 | 3.2 | 4.8 | 0.00 | 0.00 | 0.00 | 88 | 1010.1 |
| 20260905074323 | 25 | 227 | 0.0 | 1.6 | 0.00 | 0.00 | 0.00 | 88 | 1010.1 |
| 20260905073819 | 25 | 260 | 0.0 | 1.6 | 0.00 | 0.00 | 0.00 | 88 | 1010.0 |
| 20260905073317 | 25 | 184 | 1.6 | 1.6 | 0.00 | 0.00 | 0.00 | 87 | 1010.1 |
| 20260905072814 | 25 | 276 | 3.2 | 3.2 | 0.00 | 0.00 | 0.00 | 87 | 1010.0 |
| 20260905072309 | 26 | 251 | 3.2 | 3.2 | 0.00 | 0.00 | 0.00 | 87 | 1010.1 |